LTFELGIR

Guest
Details From LTFE - MILAS BODRUM
To LGIR - Iraklion - Nizos Kazantzakis
Flight Number -
Tags generated
Created
Modified
Stats Distance 166 nm / 308 km
Max Altitude 20,700 ft / 6,309 m
Waypoints 3
Social Downloads 0
Likes 0
Share VATSIM

Download

Looking for another format? Having issues loading an existing format? Contact us
Advertisement - Login to hide

Notes

Basic altitude profile: - Ascent Rate: 2500ft/min - Ascent Speed: 250kts - Cruise Altitude: 35000ft - Cruise Speed: 420kts - Descent Rate: 1500ft/min - Descent Speed: 250kts Options: - Use NATs: yes - Use PACOTS: yes - Use low airways: yes - Use high airways: yes

Route

LTFE BIKRO LGIR

ID Type Via Altitude Latitude Longitude Leg Dist Tot Dist Heading (true) Name
O LTFE APT - 0 ft / 0 m 37.25112˚ 27.66535˚ - 0 nm - MILAS BODRUM
BIKRO FIX - 20,700 ft / 6,309 m 36.51333˚ 26.68111˚ 64 nm 64 nm 227° / 227° -
O LGIR APT - 0 ft / 0 m 35.33949˚ 25.18012˚ 101 nm 166 nm 226° / 226° Iraklion - Nizos Kazantzakis

Altitude Profile

Advertisement - Login to hide

Weather


0- 5 10 15 20 25 30 35+ Temperature / ° C

Clouds and Precipitation
Forecast for 2017-12-17 18:00 UTC. Updated 34 minutes ago

Ground ~20,000 ft ~40,000 ft Winds

LTFE

Details ICAO LTFE (BJV)
Name MILAS BODRUM
Region Turkey
Timezone Europe/Istanbul (UTC+3.0)
Stats Elevation 21 ft / 6 m (AMSL)
Location 37.251115° 27.665350°
Runways 1
Magnetic Variation 4.832° E

METAR

LTFE 171330Z 18021G32KT 9999 FEW020CB SCT035 BKN100 19/11 Q1014 RESHRA NOSIG RMK RWY10 18017KT

Decode

TAF

Not found

Departure Runways

ID Width Length Bearing (true) Bearing (mag) Surface Threshold Offset Overrun Length
11 148 ft / 45 m 9,786 ft / 2,983 m 106.68° 101.85° Concrete 0 ft / 0 m 208 ft / 63 m
29 148 ft / 45 m 9,786 ft / 2,983 m 286.70° 281.87° Concrete 0 ft / 0 m 201 ft / 61 m

LGIR

Details ICAO LGIR (HER)
Name Iraklion - Nizos Kazantzakis
Region Greece
Timezone Europe/Athens (UTC+2.0)
Stats Elevation 115 ft / 35 m (AMSL)
Location 35.339487° 25.180120°
Runways 3
Magnetic Variation 4.380° E

METAR

LGIR 171320Z 34009KT 9999 SCT025 22/11 Q1012 NOSIG

Decode

TAF

TAF LGIR 171100Z 1712/1812 20010KT 9999 FEW020 SCT080 PROB30 TEMPO 1712/1724 5000 RA SCT015 BKN025 BECMG 1712/1714 29013KT BECMG 1802/1804 VRB05KT

Decode

Destination Runways

ID Width Length Bearing (true) Bearing (mag) Surface Threshold Offset Overrun Length
09 148 ft / 45 m 8,755 ft / 2,669 m 94.84° 90.46° Asphalt 1,565 ft / 477 m 200 ft / 61 m
12 164 ft / 50 m 5,136 ft / 1,566 m 126.27° 121.89° Asphalt 499 ft / 152 m 190 ft / 58 m
18 131 ft / 40 m 2,607 ft / 795 m 180.40° 176.02° Asphalt 0 ft / 0 m 0 ft / 0 m
27 148 ft / 45 m 8,755 ft / 2,669 m 274.86° 270.48° Asphalt 0 ft / 0 m 210 ft / 64 m
30 164 ft / 50 m 5,136 ft / 1,566 m 306.28° 301.90° Asphalt 0 ft / 0 m 0 ft / 0 m
36 131 ft / 40 m 2,607 ft / 795 m 0.40° 356.02° Asphalt 328 ft / 100 m 0 ft / 0 m

Popular Alternatives